createdAt,value
2023-05-20T00:00:02.292Z,99.90
2023-05-20T00:02:31.251Z,99.90
2023-05-20T00:05:01.067Z,99.90
2023-05-20T00:07:29.304Z,99.90
2023-05-20T00:09:57.738Z,99.90
2023-05-20T00:12:26.081Z,99.90
2023-05-20T00:14:55.893Z,99.90
2023-05-20T00:17:25.852Z,99.90
2023-05-20T00:19:54.454Z,99.90
2023-05-20T00:22:24.192Z,99.90
2023-05-20T00:24:52.684Z,99.90
2023-05-20T00:27:20.953Z,99.90
2023-05-20T00:29:49.240Z,99.90
2023-05-20T00:32:17.652Z,99.90
2023-05-20T00:34:46.507Z,99.90
2023-05-20T00:37:14.780Z,99.90
2023-05-20T00:39:44.388Z,99.90
2023-05-20T00:42:12.608Z,99.90
2023-05-20T00:44:40.818Z,99.90
2023-05-20T00:47:09.223Z,99.90
2023-05-20T00:49:37.585Z,99.90
2023-05-20T00:52:06.675Z,99.90
2023-05-20T00:54:35.029Z,99.90
2023-05-20T00:57:06.796Z,99.90
2023-05-20T00:59:35.675Z,99.90
2023-05-20T01:02:04.539Z,99.90
2023-05-20T01:04:33.261Z,99.90
2023-05-20T01:07:04.768Z,99.90
2023-05-20T01:09:33.618Z,99.90
2023-05-20T01:12:10.455Z,99.90
2023-05-20T01:14:42.916Z,99.90
2023-05-20T01:17:13.133Z,99.90
2023-05-20T01:19:44.489Z,99.90
2023-05-20T01:22:13.928Z,99.90
2023-05-20T01:24:44.977Z,99.90
2023-05-20T01:27:14.073Z,99.90
2023-05-20T01:29:43.981Z,99.90
2023-05-20T01:32:16.543Z,99.90
2023-05-20T01:34:45.375Z,99.90
2023-05-20T01:37:15.006Z,99.90
2023-05-20T01:39:45.447Z,99.90
2023-05-20T01:42:16.455Z,99.90
2023-05-20T01:44:44.843Z,99.90
2023-05-20T01:47:13.100Z,99.90
2023-05-20T01:49:41.536Z,99.90
2023-05-20T01:52:10.107Z,99.90
2023-05-20T01:54:38.321Z,99.90
2023-05-20T01:57:08.062Z,99.90
2023-05-20T01:59:36.280Z,99.90
2023-05-20T02:02:04.696Z,99.90
2023-05-20T02:04:32.998Z,99.90
2023-05-20T02:07:01.243Z,99.90
2023-05-20T02:09:29.848Z,99.90
2023-05-20T02:11:58.082Z,99.90
2023-05-20T02:14:27.722Z,99.90
2023-05-20T02:16:56.079Z,99.90
2023-05-20T02:19:24.745Z,99.90
2023-05-20T02:21:53.068Z,99.90
2023-05-20T02:24:21.746Z,99.90
2023-05-20T02:26:51.373Z,99.90
2023-05-20T02:29:22.135Z,99.90
2023-05-20T02:31:51.787Z,99.90
2023-05-20T02:34:20.420Z,99.90
2023-05-20T02:36:48.825Z,99.90
2023-05-20T02:39:17.261Z,99.90
2023-05-20T02:41:45.541Z,99.90
2023-05-20T02:44:13.741Z,99.90
2023-05-20T02:46:42.149Z,99.90
2023-05-20T02:49:11.779Z,99.90
2023-05-20T02:51:41.281Z,99.90
2023-05-20T02:54:09.485Z,99.90
2023-05-20T02:56:37.682Z,99.90
2023-05-20T02:59:07.258Z,99.90
2023-05-20T03:01:36.073Z,99.90
2023-05-20T03:04:04.813Z,99.90
2023-05-20T03:06:34.656Z,99.90
2023-05-20T03:09:03.188Z,99.90
2023-05-20T03:11:31.393Z,99.90
2023-05-20T03:13:59.684Z,99.90
2023-05-20T03:16:28.289Z,99.90
2023-05-20T03:18:56.784Z,99.90
2023-05-20T03:21:25.283Z,99.90
2023-05-20T03:23:54.915Z,99.90
2023-05-20T03:26:23.275Z,99.90
2023-05-20T03:28:51.512Z,99.90
2023-05-20T03:31:20.087Z,99.90
2023-05-20T03:33:48.420Z,99.90
2023-05-20T03:36:16.665Z,99.90
2023-05-20T03:38:44.892Z,99.90
2023-05-20T03:41:14.532Z,99.90
2023-05-20T03:43:42.743Z,99.90
2023-05-20T03:46:11.083Z,99.90
2023-05-20T03:48:39.375Z,99.90
2023-05-20T03:51:07.839Z,99.90
2023-05-20T03:53:36.089Z,99.90
2023-05-20T03:56:04.472Z,99.90
2023-05-20T03:58:35.358Z,99.90
2023-05-20T04:01:03.593Z,99.90
2023-05-20T04:03:31.987Z,99.90
2023-05-20T04:06:00.430Z,99.90
2023-05-20T04:08:28.971Z,99.90
2023-05-20T04:10:57.718Z,99.90
2023-05-20T04:13:26.821Z,99.90
2023-05-20T04:15:56.485Z,99.90
2023-05-20T04:18:24.736Z,99.90
2023-05-20T04:20:56.743Z,99.90
2023-05-20T04:23:24.968Z,99.90
2023-05-20T04:25:53.204Z,99.90
2023-05-20T04:28:24.093Z,99.90
2023-05-20T04:31:02.768Z,99.90
2023-05-20T04:33:31.145Z,99.90
2023-05-20T04:35:59.663Z,99.90
2023-05-20T04:38:30.118Z,99.90
2023-05-20T04:40:58.979Z,99.90
2023-05-20T04:43:30.263Z,99.90
2023-05-20T04:46:01.472Z,99.90
2023-05-20T04:48:29.756Z,99.90
2023-05-20T04:50:57.981Z,99.90
2023-05-20T04:53:26.458Z,99.90
2023-05-20T04:55:57.005Z,99.90
2023-05-20T04:58:29.706Z,99.90
2023-05-20T05:00:58.111Z,99.90
2023-05-20T05:03:27.794Z,99.90
2023-05-20T05:05:57.729Z,99.90
2023-05-20T05:08:26.425Z,99.90
2023-05-20T05:10:54.780Z,99.90
2023-05-20T05:13:23.022Z,99.90
2023-05-20T05:15:59.912Z,99.90
2023-05-20T05:18:29.668Z,99.90
2023-05-20T05:21:02.228Z,99.90
2023-05-20T05:23:30.800Z,99.90
2023-05-20T05:25:59.818Z,99.90
2023-05-20T05:28:28.077Z,99.90
2023-05-20T05:30:57.053Z,99.90
2023-05-20T05:33:25.502Z,99.90
2023-05-20T05:35:56.830Z,99.90
2023-05-20T05:38:25.128Z,99.90
2023-05-20T05:40:53.408Z,99.90
2023-05-20T05:43:21.623Z,99.90
2023-05-20T05:45:49.819Z,99.90
2023-05-20T05:48:18.022Z,99.90
2023-05-20T05:50:47.211Z,99.90
2023-05-20T05:53:16.808Z,99.90
2023-05-20T05:55:47.035Z,99.90
2023-05-20T05:58:15.279Z,99.90
2023-05-20T06:00:43.533Z,99.90
2023-05-20T06:03:12.004Z,99.90
2023-05-20T06:05:40.276Z,99.90
2023-05-20T06:08:08.855Z,99.90
2023-05-20T06:10:38.480Z,99.90
2023-05-20T06:13:06.698Z,99.90
2023-05-20T06:15:35.091Z,99.90
2023-05-20T06:18:03.547Z,99.90
2023-05-20T06:20:31.851Z,99.90
2023-05-20T06:23:00.107Z,99.90
2023-05-20T06:25:29.270Z,99.90
2023-05-20T06:27:58.884Z,99.90
2023-05-20T06:30:27.226Z,99.90
2023-05-20T06:32:55.506Z,99.90
2023-05-20T06:35:23.811Z,99.90
2023-05-20T06:37:52.093Z,99.90
2023-05-20T06:40:20.515Z,99.90
2023-05-20T06:42:48.765Z,99.90
2023-05-20T06:45:18.531Z,99.90
2023-05-20T06:47:48.101Z,99.90
2023-05-20T06:50:16.845Z,99.90
2023-05-20T06:52:45.103Z,99.90
2023-05-20T06:55:13.439Z,99.90
2023-05-20T06:57:41.696Z,99.90
2023-05-20T07:00:11.171Z,99.90
2023-05-20T07:02:41.272Z,99.90
2023-05-20T07:05:10.507Z,99.90
2023-05-20T07:07:38.736Z,99.90
2023-05-20T07:10:08.342Z,99.90
2023-05-20T07:12:37.052Z,99.90
2023-05-20T07:15:06.105Z,99.90
2023-05-20T07:17:34.363Z,99.90
2023-05-20T07:20:04.625Z,99.90
2023-05-20T07:22:32.877Z,99.90
2023-05-20T07:25:02.253Z,99.90
2023-05-20T07:27:30.516Z,99.90
2023-05-20T07:29:58.745Z,99.90
2023-05-20T07:32:26.973Z,99.90
2023-05-20T07:34:55.286Z,99.90
2023-05-20T07:37:24.898Z,99.90
2023-05-20T07:39:53.098Z,99.90
2023-05-20T07:42:21.385Z,99.90
2023-05-20T07:44:49.633Z,99.90
2023-05-20T07:47:17.852Z,99.90
2023-05-20T07:49:46.879Z,99.90
2023-05-20T07:52:15.112Z,99.90
2023-05-20T07:54:44.735Z,99.90
2023-05-20T07:57:13.019Z,99.90
2023-05-20T07:59:41.236Z,99.90
2023-05-20T08:02:10.037Z,99.90
2023-05-20T08:04:38.734Z,99.90
2023-05-20T08:07:07.213Z,99.90
2023-05-20T08:09:36.178Z,99.90
2023-05-20T08:12:06.305Z,99.90
2023-05-20T08:14:37.544Z,99.90
2023-05-20T08:17:06.078Z,99.90
2023-05-20T08:19:34.399Z,99.90
2023-05-20T08:22:03.089Z,99.90
2023-05-20T08:24:32.259Z,99.90
2023-05-20T08:27:00.793Z,99.90
2023-05-20T08:29:30.508Z,99.90
2023-05-20T08:31:58.775Z,99.90
2023-05-20T08:34:27.067Z,99.90
2023-05-20T08:36:55.590Z,99.90
2023-05-20T08:39:23.860Z,99.90
2023-05-20T08:41:52.146Z,99.90
2023-05-20T08:44:22.624Z,99.90
2023-05-20T08:46:53.137Z,99.90
2023-05-20T08:49:21.966Z,99.90
2023-05-20T08:51:50.210Z,99.90
2023-05-20T08:54:20.991Z,99.90
2023-05-20T08:56:49.644Z,99.90
2023-05-20T08:59:19.452Z,99.90
2023-05-20T09:01:47.758Z,99.90
2023-05-20T09:04:20.672Z,99.90
2023-05-20T09:06:48.933Z,99.90
2023-05-20T09:09:17.308Z,99.90
2023-05-20T09:11:45.857Z,99.90
2023-05-20T09:14:16.600Z,99.90
2023-05-20T09:16:44.933Z,99.90
2023-05-20T09:19:13.355Z,99.90
2023-05-20T09:21:44.322Z,99.90
2023-05-20T09:24:12.569Z,99.90
2023-05-20T09:26:40.849Z,99.90
2023-05-20T09:29:09.706Z,99.90
2023-05-20T09:31:39.087Z,99.90
2023-05-20T09:34:08.111Z,99.90
2023-05-20T09:36:37.195Z,99.90
2023-05-20T09:39:10.006Z,99.90
2023-05-20T09:41:46.050Z,99.90
2023-05-20T09:44:16.425Z,99.90
2023-05-20T09:46:47.056Z,99.90
2023-05-20T09:49:16.818Z,99.90
2023-05-20T09:51:49.117Z,99.90
2023-05-20T09:54:20.585Z,99.90
2023-05-20T09:56:49.191Z,99.90
2023-05-20T09:59:18.229Z,99.90
2023-05-20T10:01:46.678Z,99.90
2023-05-20T10:04:17.354Z,99.90
2023-05-20T10:07:01.964Z,99.90
2023-05-20T10:09:45.087Z,99.90
2023-05-20T10:12:23.450Z,99.90
2023-05-20T10:15:05.526Z,99.90
2023-05-20T10:17:46.152Z,99.90
2023-05-20T10:20:14.915Z,99.90
2023-05-20T10:22:45.330Z,99.90
2023-05-20T10:25:26.725Z,99.90
2023-05-20T10:28:07.864Z,99.90
2023-05-20T10:30:36.886Z,99.90
2023-05-20T10:33:07.187Z,99.90
2023-05-20T10:35:36.188Z,99.90
2023-05-20T10:38:12.237Z,99.90
2023-05-20T10:40:41.992Z,99.90
2023-05-20T10:43:11.644Z,99.90
2023-05-20T10:45:51.004Z,99.90
2023-05-20T10:48:22.893Z,99.30
2023-05-20T10:50:51.595Z,99.90
2023-05-20T10:53:32.758Z,99.90
2023-05-20T10:56:04.202Z,99.90
2023-05-20T10:58:39.240Z,99.90
2023-05-20T11:01:07.585Z,98.80
2023-05-20T11:03:37.297Z,97.90
2023-05-20T11:06:14.034Z,98.10
2023-05-20T11:08:43.971Z,97.40
2023-05-20T11:11:14.923Z,98.50
2023-05-20T11:13:46.389Z,98.40
2023-05-20T11:16:14.665Z,98.90
2023-05-20T11:18:42.982Z,99.40
2023-05-20T11:21:11.796Z,99.90
2023-05-20T11:23:40.831Z,99.50
2023-05-20T11:26:09.264Z,98.80
2023-05-20T11:28:39.763Z,99.90
2023-05-20T11:31:08.332Z,96.60
2023-05-20T11:33:36.651Z,95.20
2023-05-20T11:36:08.751Z,94.20
2023-05-20T11:38:42.985Z,95.10
2023-05-20T11:41:11.213Z,96.50
2023-05-20T11:43:45.424Z,95.20
2023-05-20T11:46:13.863Z,96.60
2023-05-20T11:48:52.321Z,96.50
2023-05-20T11:51:23.644Z,96.60
2023-05-20T11:53:51.870Z,98.50
2023-05-20T11:56:21.621Z,99.30
2023-05-20T11:58:51.499Z,99.90
2023-05-20T12:01:22.657Z,99.90
2023-05-20T12:03:51.671Z,99.90
2023-05-20T12:06:20.289Z,99.90
2023-05-20T12:08:48.591Z,98.20
2023-05-20T12:11:16.962Z,97.00
2023-05-20T12:13:45.183Z,97.20
2023-05-20T12:16:14.888Z,96.80
2023-05-20T12:18:43.141Z,99.90
2023-05-20T12:21:11.382Z,99.40
2023-05-20T12:23:39.681Z,98.60
2023-05-20T12:26:11.040Z,96.00
2023-05-20T12:28:40.358Z,96.80
2023-05-20T12:31:08.643Z,97.90
2023-05-20T12:33:38.321Z,98.10
2023-05-20T12:36:07.224Z,99.90
2023-05-20T12:38:35.467Z,99.90
2023-05-20T12:41:03.661Z,99.60
2023-05-20T12:43:31.948Z,98.70
2023-05-20T12:46:00.405Z,99.90
2023-05-20T12:48:28.649Z,99.90
2023-05-20T12:50:58.357Z,99.90
2023-05-20T12:53:26.636Z,99.90
2023-05-20T12:55:54.891Z,99.90
2023-05-20T12:58:23.203Z,99.10
2023-05-20T13:00:51.525Z,99.40
2023-05-20T13:03:19.828Z,99.90
2023-05-20T13:05:48.121Z,98.90
2023-05-20T13:08:17.805Z,99.90
2023-05-20T13:10:46.228Z,99.90
2023-05-20T13:13:21.249Z,99.90
2023-05-20T13:15:50.397Z,98.60
2023-05-20T13:18:19.514Z,99.90
2023-05-20T13:20:47.987Z,99.20
2023-05-20T13:23:17.606Z,99.90
2023-05-20T13:25:45.871Z,99.90
2023-05-20T13:28:16.854Z,99.90
2023-05-20T13:30:45.232Z,99.60
2023-05-20T13:33:13.556Z,99.90
2023-05-20T13:35:41.887Z,97.90
2023-05-20T13:38:10.309Z,98.90
2023-05-20T13:40:39.931Z,97.90
2023-05-20T13:43:08.132Z,99.70
2023-05-20T13:45:36.504Z,99.90
2023-05-20T13:48:04.898Z,99.90
2023-05-20T13:50:33.252Z,99.90
2023-05-20T13:53:02.171Z,99.90
2023-05-20T13:55:30.419Z,99.90
2023-05-20T13:58:00.101Z,99.90
2023-05-20T14:00:28.480Z,99.90
2023-05-20T14:02:56.957Z,99.90
2023-05-20T14:05:25.281Z,99.90
2023-05-20T14:07:53.512Z,99.60
2023-05-20T14:10:21.930Z,99.20
2023-05-20T14:12:50.196Z,99.90
2023-05-20T14:15:19.950Z,99.90
2023-05-20T14:17:48.871Z,99.90
2023-05-20T14:20:17.815Z,99.90
2023-05-20T14:22:46.039Z,99.90
2023-05-20T14:25:14.289Z,99.00
2023-05-20T14:27:42.806Z,98.30
2023-05-20T14:30:12.033Z,98.60
2023-05-20T14:32:41.774Z,99.90
2023-05-20T14:35:10.441Z,98.90
2023-05-20T14:37:38.672Z,99.90
2023-05-20T14:40:08.294Z,99.90
2023-05-20T14:42:36.660Z,99.90
2023-05-20T14:45:05.518Z,98.90
2023-05-20T14:47:34.107Z,99.80
2023-05-20T14:50:03.835Z,99.90
2023-05-20T14:52:32.069Z,99.90
2023-05-20T14:55:00.363Z,99.90
2023-05-20T14:57:31.434Z,99.90
2023-05-20T14:59:59.651Z,99.30
2023-05-20T15:02:27.927Z,99.50
2023-05-20T15:04:56.233Z,98.90
2023-05-20T15:07:26.640Z,98.70
2023-05-20T15:09:54.842Z,99.30
2023-05-20T15:12:23.103Z,97.40
2023-05-20T15:14:51.331Z,99.70
2023-05-20T15:17:19.922Z,99.90
2023-05-20T15:19:48.196Z,99.90
2023-05-20T15:22:16.621Z,99.90
2023-05-20T15:24:46.304Z,99.90
2023-05-20T15:27:14.605Z,99.90
2023-05-20T15:29:42.849Z,99.90
2023-05-20T15:32:11.285Z,99.90
2023-05-20T15:34:39.618Z,99.90
2023-05-20T15:37:08.003Z,99.90
2023-05-20T15:39:39.423Z,99.90
2023-05-20T15:42:14.058Z,99.90
2023-05-20T15:44:42.270Z,99.90
2023-05-20T15:47:10.885Z,99.90
2023-05-20T15:49:39.165Z,99.90
2023-05-20T15:52:07.796Z,99.90
2023-05-20T15:54:36.041Z,99.90
2023-05-20T15:57:05.380Z,99.90
2023-05-20T15:59:35.100Z,99.90
2023-05-20T16:02:03.669Z,99.90
2023-05-20T16:04:32.642Z,99.90
2023-05-20T16:07:02.233Z,99.90
2023-05-20T16:09:31.148Z,99.90
2023-05-20T16:11:59.559Z,99.90
2023-05-20T16:14:27.951Z,99.90
2023-05-20T16:16:57.584Z,99.90
2023-05-20T16:19:25.916Z,99.90
2023-05-20T16:21:54.373Z,99.90
2023-05-20T16:24:22.583Z,99.90
2023-05-20T16:26:51.203Z,99.90
2023-05-20T16:29:19.444Z,99.90
2023-05-20T16:31:50.885Z,99.90
2023-05-20T16:34:20.544Z,99.90
2023-05-20T16:36:48.847Z,99.90
2023-05-20T16:39:17.686Z,99.90
2023-05-20T16:41:45.988Z,99.90
2023-05-20T16:44:14.225Z,99.90
2023-05-20T16:46:42.486Z,99.90
2023-05-20T16:49:13.566Z,99.90
2023-05-20T16:51:43.284Z,99.90
2023-05-20T16:54:11.564Z,99.90
2023-05-20T16:56:39.794Z,99.90
2023-05-20T16:59:08.046Z,99.90
2023-05-20T17:01:37.018Z,99.90
2023-05-20T17:04:05.577Z,99.90
2023-05-20T17:06:34.410Z,99.90
2023-05-20T17:09:04.738Z,99.90
2023-05-20T17:11:33.058Z,99.90
2023-05-20T17:14:01.344Z,99.90
2023-05-20T17:16:29.871Z,99.90
2023-05-20T17:18:58.753Z,99.90
2023-05-20T17:21:29.590Z,99.90
2023-05-20T17:24:00.712Z,99.90
2023-05-20T17:26:30.527Z,99.90
2023-05-20T17:28:58.761Z,99.90
2023-05-20T17:31:27.041Z,99.90
2023-05-20T17:33:55.437Z,99.90
2023-05-20T17:36:24.020Z,99.90
2023-05-20T17:38:52.625Z,99.90
2023-05-20T17:41:21.847Z,99.90
2023-05-20T17:43:51.556Z,99.90
2023-05-20T17:46:19.916Z,99.90
2023-05-20T17:48:48.167Z,99.90
2023-05-20T17:51:18.070Z,99.90
2023-05-20T17:53:46.756Z,99.90
2023-05-20T17:56:15.153Z,99.90
2023-05-20T17:58:45.010Z,99.90
2023-05-20T18:01:15.065Z,99.90
2023-05-20T18:03:43.494Z,99.90
2023-05-20T18:06:12.283Z,99.90
2023-05-20T18:08:40.648Z,99.90
2023-05-20T18:11:08.868Z,99.90
2023-05-20T18:13:37.168Z,99.90
2023-05-20T18:16:06.147Z,99.90
2023-05-20T18:18:35.892Z,99.90
2023-05-20T18:21:06.648Z,99.90
2023-05-20T18:23:37.564Z,99.90
2023-05-20T18:26:07.066Z,99.90
2023-05-20T18:28:35.513Z,99.90
2023-05-20T18:31:03.751Z,99.90
2023-05-20T18:33:32.946Z,99.90
2023-05-20T18:36:02.610Z,99.90
2023-05-20T18:38:31.017Z,99.90
2023-05-20T18:41:02.195Z,99.90
2023-05-20T18:43:30.403Z,99.90
2023-05-20T18:45:58.689Z,99.90
2023-05-20T18:48:30.218Z,99.90
2023-05-20T18:50:58.597Z,99.90
2023-05-20T18:53:28.269Z,99.90
2023-05-20T18:56:01.213Z,99.90
2023-05-20T18:58:29.580Z,99.90
2023-05-20T19:00:58.679Z,99.90
2023-05-20T19:03:27.087Z,99.90
2023-05-20T19:05:58.471Z,99.90
2023-05-20T19:08:28.433Z,99.90
2023-05-20T19:10:56.745Z,99.90
2023-05-20T19:13:25.103Z,99.90
2023-05-20T19:15:53.396Z,99.90
2023-05-20T19:18:24.607Z,99.90
2023-05-20T19:20:53.164Z,99.90
2023-05-20T19:23:21.458Z,99.90
2023-05-20T19:25:53.690Z,99.90
2023-05-20T19:28:22.045Z,99.90
2023-05-20T19:30:50.562Z,99.90
2023-05-20T19:33:20.049Z,99.90
2023-05-20T19:35:51.345Z,99.90
2023-05-20T19:38:23.238Z,99.90
2023-05-20T19:40:52.924Z,99.90
2023-05-20T19:43:21.141Z,99.90
2023-05-20T19:45:49.420Z,99.90
2023-05-20T19:48:18.521Z,99.90
2023-05-20T19:50:47.795Z,99.90
2023-05-20T19:53:16.562Z,99.90
2023-05-20T19:55:44.940Z,99.90
2023-05-20T19:58:17.912Z,99.90
2023-05-20T20:00:46.217Z,99.90
2023-05-20T20:03:14.493Z,99.90
2023-05-20T20:05:42.891Z,99.90
2023-05-20T20:08:11.349Z,99.90
2023-05-20T20:10:50.956Z,99.90
2023-05-20T20:13:23.370Z,99.90
2023-05-20T20:15:54.722Z,99.90
2023-05-20T20:18:23.026Z,99.90
2023-05-20T20:20:51.316Z,99.90
2023-05-20T20:23:19.661Z,99.90
2023-05-20T20:25:50.605Z,99.90
2023-05-20T20:28:19.051Z,99.90
2023-05-20T20:30:48.681Z,99.90
2023-05-20T20:33:19.702Z,99.90
2023-05-20T20:35:50.902Z,99.90
2023-05-20T20:38:19.761Z,99.90
2023-05-20T20:40:49.761Z,99.90
2023-05-20T20:43:20.896Z,99.90
2023-05-20T20:45:53.054Z,99.90
2023-05-20T20:48:26.805Z,99.90
2023-05-20T20:50:55.457Z,99.90
2023-05-20T20:53:23.722Z,99.90
2023-05-20T20:55:56.951Z,99.90
2023-05-20T20:58:25.260Z,99.90
2023-05-20T21:00:55.133Z,99.90
2023-05-20T21:03:26.459Z,99.90
2023-05-20T21:05:54.750Z,99.90
2023-05-20T21:08:27.663Z,99.90
2023-05-20T21:10:59.432Z,99.90
2023-05-20T21:13:28.316Z,99.90
2023-05-20T21:15:58.012Z,99.90
2023-05-20T21:18:26.435Z,99.90
2023-05-20T21:20:55.823Z,99.90
2023-05-20T21:23:24.349Z,99.90
2023-05-20T21:25:52.608Z,99.90
2023-05-20T21:28:23.334Z,99.90
2023-05-20T21:30:51.646Z,99.90
2023-05-20T21:33:23.899Z,99.90
2023-05-20T21:35:52.162Z,99.90
2023-05-20T21:38:20.464Z,99.90
2023-05-20T21:40:49.696Z,99.90
2023-05-20T21:43:19.953Z,99.90
2023-05-20T21:45:48.289Z,99.90
2023-05-20T21:48:16.511Z,99.90
2023-05-20T21:50:46.432Z,99.90
2023-05-20T21:53:14.789Z,99.90
2023-05-20T21:55:43.107Z,99.90
2023-05-20T21:58:11.343Z,99.90
2023-05-20T22:00:40.735Z,99.90
2023-05-20T22:03:09.008Z,99.90
2023-05-20T22:05:37.446Z,99.90
2023-05-20T22:08:07.878Z,99.90
2023-05-20T22:10:36.526Z,99.90
2023-05-20T22:13:07.383Z,99.90
2023-05-20T22:15:35.838Z,99.90
2023-05-20T22:18:06.801Z,99.90
2023-05-20T22:20:35.973Z,99.90
2023-05-20T22:23:08.399Z,99.90
2023-05-20T22:25:37.584Z,99.90
2023-05-20T22:28:06.339Z,99.90
2023-05-20T22:30:34.599Z,99.90
2023-05-20T22:33:02.890Z,99.90
2023-05-20T22:35:31.403Z,99.90
2023-05-20T22:38:00.317Z,99.90
2023-05-20T22:40:30.112Z,99.90
2023-05-20T22:42:58.311Z,99.90
2023-05-20T22:45:26.633Z,99.90
2023-05-20T22:47:55.497Z,99.90
2023-05-20T22:50:24.042Z,99.90
2023-05-20T22:52:52.269Z,99.90
2023-05-20T22:55:20.639Z,99.90
2023-05-20T22:57:50.572Z,99.90
2023-05-20T23:00:19.393Z,99.90
2023-05-20T23:02:49.768Z,99.90
2023-05-20T23:05:18.394Z,99.90
2023-05-20T23:07:46.709Z,99.90
2023-05-20T23:10:15.076Z,99.90
2023-05-20T23:12:43.282Z,99.90
2023-05-20T23:15:13.284Z,99.90
2023-05-20T23:17:41.615Z,99.90
2023-05-20T23:20:11.279Z,99.90
2023-05-20T23:22:39.588Z,99.90
2023-05-20T23:25:08.718Z,99.90
2023-05-20T23:27:37.002Z,99.90
2023-05-20T23:30:05.824Z,99.90
2023-05-20T23:32:35.639Z,99.90
2023-05-20T23:35:04.885Z,99.90
2023-05-20T23:37:34.377Z,99.90
2023-05-20T23:40:04.433Z,99.90
2023-05-20T23:42:32.737Z,99.90
2023-05-20T23:45:00.996Z,99.90
2023-05-20T23:47:29.911Z,99.90
2023-05-20T23:50:00.357Z,99.90
2023-05-20T23:52:28.714Z,99.90
2023-05-20T23:54:58.538Z,99.90
2023-05-20T23:57:26.778Z,99.90
2023-05-20T23:59:55.034Z,99.90
